首页
METAR-TAF:

METAR-TAF

机场 :

土庫曼納巴德, 土库曼斯坦

纬度: 39-05-00N, 经度: 063-36-48E, 海拔: 192米

当前天气观测

该预报发布于38分钟前的06:00 UTC
风速18节,风向东转东南
温度 10°C
湿度 71%
气压 1016 hPa
能见度10公里或以上
1500米以下无云,无积雨云

METAR: UTAV 290600Z 11018KT CAVOK 10/05 Q1016 R13/CLRD70 NOSIG

时间: 11:38 (06:38 UTC)

预报

该预报发布于2小时和8分钟前的04:30 UTC
预报有效从29日的 05点(UTC)到 01日的 06点(UTC)
风速18节,风向东转东南,有时为28节阵风
能见度10公里或以上
1500米以下无云,无积雨云
短暂存在
从 29日的 05点(UTC)到 29日的 12点(UTC)
风速20节,风向南转南东,有时为30节阵风
能見度: 3000
散云层高于3000英尺
散云层高于10000英尺
低吹尘

TAF: UTAV 290430Z 2905/0106 12018G28KT CAVOK TEMPO 2905/2912 16020G30KT 3000 DRDU SCT030 SCT100

超过4000个机场的气象观测和天气预报(METAR&TAF报告)。

可查询的气象台以黄色和红色小点在地图上表示。

将鼠标移到小点上方,可查看气象台名称。

然后点击查看天气观测和预报。

如需切换地图:点击带黑十字的绿色按钮放大地图;点击带横线的绿色按钮缩小地图;或者点击绿色箭头查看邻近地区的地图。


METAR-TAF: